createdAt,value
2019-05-18T00:01:19.014Z,29.25
2019-05-18T00:05:25.424Z,28.00
2019-05-18T00:09:31.812Z,30.52
2019-05-18T00:13:38.293Z,29.77
2019-05-18T00:17:44.821Z,28.17
2019-05-18T00:19:48.392Z,28.12
2019-05-18T00:23:54.793Z,29.02
2019-05-18T00:28:01.200Z,28.07
2019-05-18T00:32:11.277Z,30.48
2019-05-18T00:36:17.741Z,30.30
2019-05-18T00:40:24.152Z,31.23
2019-05-18T00:44:33.330Z,28.90
2019-05-18T00:48:39.703Z,29.52
2019-05-18T00:52:46.518Z,28.90
2019-05-18T00:56:53.029Z,28.87
2019-05-18T00:58:56.612Z,29.77
2019-05-18T01:03:03.045Z,32.33
2019-05-18T01:07:09.597Z,30.52
2019-05-18T01:11:16.029Z,29.77
2019-05-18T01:15:22.693Z,28.05
2019-05-18T01:17:26.409Z,29.48
2019-05-18T01:19:30.011Z,31.35
2019-05-18T01:23:36.380Z,30.35
2019-05-18T01:27:42.764Z,31.12
2019-05-18T01:31:49.168Z,29.50
2019-05-18T01:35:55.582Z,30.35
2019-05-18T01:40:02.045Z,30.32
2019-05-18T01:42:05.636Z,33.20
2019-05-18T01:46:12.144Z,33.33
2019-05-18T01:48:15.760Z,32.48
2019-05-18T01:52:22.142Z,33.05
2019-05-18T01:56:28.513Z,31.85
2019-05-18T02:00:34.960Z,33.30
2019-05-18T02:02:38.630Z,33.58
2019-05-18T02:04:42.237Z,34.85
2019-05-18T02:08:48.695Z,32.55
2019-05-18T02:12:55.144Z,33.75
2019-05-18T02:14:58.738Z,32.73
2019-05-18T02:19:05.248Z,34.27
2019-05-18T02:21:08.826Z,32.08
2019-05-18T02:25:15.957Z,31.17
2019-05-18T02:27:19.533Z,32.00
2019-05-18T02:31:25.918Z,32.95
2019-05-18T02:35:32.391Z,32.88
2019-05-18T02:37:35.951Z,32.10
2019-05-18T02:41:42.439Z,32.78
2019-05-18T02:45:48.908Z,32.78
2019-05-18T02:49:55.352Z,31.55
2019-05-18T02:51:58.926Z,30.77
2019-05-18T02:56:05.426Z,32.95
2019-05-18T02:58:09.025Z,34.92
2019-05-18T03:02:15.693Z,32.50
2019-05-18T03:06:22.326Z,31.55
2019-05-18T03:08:26.060Z,32.30
2019-05-18T03:10:30.271Z,30.45
2019-05-18T03:12:34.013Z,33.10
2019-05-18T03:14:37.634Z,31.93
2019-05-18T03:18:44.077Z,30.80
2019-05-18T03:20:47.647Z,31.62
2019-05-18T03:24:54.052Z,31.12
2019-05-18T03:29:00.453Z,33.02
2019-05-18T03:33:06.930Z,31.45
2019-05-18T03:35:10.672Z,31.15
2019-05-18T03:37:14.269Z,30.57
2019-05-18T03:41:20.618Z,28.87
2019-05-18T03:45:27.095Z,27.95
2019-05-18T03:47:30.651Z,27.07
2019-05-18T03:51:37.134Z,28.67
2019-05-18T03:53:40.759Z,29.42
2019-05-18T03:57:47.144Z,37.17
2019-05-18T04:01:53.511Z,36.45
2019-05-18T04:05:59.911Z,37.70
2019-05-18T04:10:07.249Z,37.20
2019-05-18T04:12:10.849Z,39.00
2019-05-18T04:16:17.288Z,39.13
2019-05-18T04:18:20.893Z,39.13
2019-05-18T04:22:27.329Z,40.17
2019-05-18T04:26:33.735Z,42.35
2019-05-18T04:30:40.151Z,40.17
2019-05-18T04:32:43.997Z,40.75
2019-05-18T04:34:47.647Z,39.85
2019-05-18T04:36:51.363Z,39.73
2019-05-18T04:38:54.930Z,39.73
2019-05-18T04:43:01.338Z,38.83
2019-05-18T04:47:08.687Z,40.80
